createdAt,value
2018-11-05T00:00:56.977Z,74.02
2018-11-05T00:03:23.261Z,73.92
2018-11-05T00:05:49.591Z,73.78
2018-11-05T00:08:15.919Z,73.41
2018-11-05T00:10:42.216Z,73.60
2018-11-05T00:13:08.554Z,73.82
2018-11-05T00:15:34.872Z,74.02
2018-11-05T00:18:01.173Z,73.88
2018-11-05T00:20:27.502Z,74.36
2018-11-05T00:22:53.824Z,74.60
2018-11-05T00:25:20.148Z,74.29
2018-11-05T00:27:46.450Z,74.56
2018-11-05T00:30:12.764Z,74.90
2018-11-05T00:32:39.090Z,75.25
2018-11-05T00:35:05.444Z,75.10
2018-11-05T00:37:31.736Z,75.45
2018-11-05T00:39:58.067Z,75.41
2018-11-05T00:42:24.376Z,75.34
2018-11-05T00:44:50.704Z,75.47
2018-11-05T00:47:17.035Z,75.74
2018-11-05T00:49:43.337Z,76.07
2018-11-05T00:52:09.673Z,76.36
2018-11-05T00:54:35.998Z,76.42
2018-11-05T00:57:02.304Z,76.66
2018-11-05T00:59:28.603Z,76.77
2018-11-05T01:01:54.942Z,76.69
2018-11-05T01:04:21.242Z,76.57
2018-11-05T01:06:47.567Z,76.78
2018-11-05T01:09:13.868Z,77.42
2018-11-05T01:11:40.181Z,78.10
2018-11-05T01:14:06.500Z,78.28
2018-11-05T01:16:32.802Z,78.48
2018-11-05T01:18:59.126Z,79.18
2018-11-05T01:21:25.425Z,79.25
2018-11-05T01:23:51.736Z,79.34
2018-11-05T01:26:18.040Z,79.43
2018-11-05T01:28:44.367Z,79.54
2018-11-05T01:31:10.696Z,80.09
2018-11-05T01:33:36.999Z,80.23
2018-11-05T01:36:03.325Z,80.64
2018-11-05T01:38:29.650Z,80.99
2018-11-05T01:40:55.989Z,81.23
2018-11-05T01:43:22.288Z,81.52
2018-11-05T01:45:48.615Z,81.72
2018-11-05T01:48:14.922Z,82.09
2018-11-05T01:50:41.253Z,82.57
2018-11-05T01:53:07.578Z,82.81
2018-11-05T01:55:33.871Z,83.10
2018-11-05T01:58:00.197Z,83.37
2018-11-05T02:00:26.495Z,83.47
2018-11-05T02:02:52.796Z,83.50
2018-11-05T02:05:19.124Z,83.55
2018-11-05T02:07:45.431Z,83.83
2018-11-05T02:10:11.815Z,84.07
2018-11-05T02:12:38.098Z,84.25
2018-11-05T02:15:04.425Z,84.44
2018-11-05T02:17:30.741Z,84.61
2018-11-05T02:19:57.044Z,84.66
2018-11-05T02:22:23.344Z,84.63
2018-11-05T02:24:49.682Z,84.75
2018-11-05T02:27:16.121Z,84.98
2018-11-05T02:29:42.308Z,84.90
2018-11-05T02:32:08.629Z,84.87
2018-11-05T02:34:34.957Z,84.92
2018-11-05T02:37:01.264Z,84.95
2018-11-05T02:39:27.586Z,84.83
2018-11-05T02:41:53.901Z,84.56
2018-11-05T02:44:20.265Z,84.79
2018-11-05T02:46:46.589Z,84.78
2018-11-05T02:49:12.948Z,84.84
2018-11-05T02:51:39.248Z,84.97
2018-11-05T02:54:05.569Z,85.12
2018-11-05T02:56:31.891Z,85.24
2018-11-05T02:58:58.213Z,85.69
2018-11-05T03:01:24.538Z,85.92
2018-11-05T03:03:50.875Z,85.98
2018-11-05T03:06:17.176Z,85.83
2018-11-05T03:08:43.508Z,86.24
2018-11-05T03:11:09.836Z,86.30
2018-11-05T03:13:36.149Z,86.54
2018-11-05T03:16:02.456Z,86.79
2018-11-05T03:18:28.760Z,86.87
2018-11-05T03:20:55.090Z,86.98
2018-11-05T03:23:21.395Z,87.19
2018-11-05T03:25:47.692Z,87.48
2018-11-05T03:28:14.085Z,87.64
2018-11-05T03:30:40.393Z,87.62
2018-11-05T03:33:06.721Z,87.67
2018-11-05T03:35:33.073Z,87.86
2018-11-05T03:37:59.332Z,88.22
2018-11-05T03:40:25.660Z,88.36
2018-11-05T03:42:52.081Z,88.57
2018-11-05T03:45:18.404Z,88.72
2018-11-05T03:47:44.729Z,88.84
2018-11-05T03:50:11.027Z,88.89
2018-11-05T03:52:37.356Z,88.90
2018-11-05T03:55:03.677Z,89.05
2018-11-05T03:57:29.988Z,89.07
2018-11-05T03:59:56.312Z,89.01
2018-11-05T04:02:22.613Z,88.92
2018-11-05T04:04:48.926Z,88.95
2018-11-05T04:07:15.228Z,89.08
2018-11-05T04:09:41.524Z,89.26
2018-11-05T04:12:07.864Z,89.39
2018-11-05T04:14:34.170Z,89.51
2018-11-05T04:17:00.467Z,89.32
2018-11-05T04:19:26.767Z,88.92
2018-11-05T04:21:53.071Z,88.67
2018-11-05T04:24:19.368Z,88.72
2018-11-05T04:26:45.733Z,88.77
2018-11-05T04:29:12.032Z,88.90
2018-11-05T04:31:38.336Z,88.88
2018-11-05T04:34:04.656Z,89.00
2018-11-05T04:36:30.987Z,89.32
2018-11-05T04:38:57.304Z,89.44
2018-11-05T04:41:23.603Z,89.70
2018-11-05T04:43:49.908Z,89.75
2018-11-05T04:46:16.209Z,89.94
2018-11-05T04:48:42.517Z,90.37
2018-11-05T04:51:08.820Z,90.67
2018-11-05T04:53:35.126Z,90.53
2018-11-05T04:56:01.419Z,90.63
2018-11-05T04:58:27.740Z,90.60
2018-11-05T05:00:54.064Z,90.69
2018-11-05T05:05:46.721Z,90.94
2018-11-05T05:08:13.015Z,90.95
2018-11-05T05:10:39.320Z,90.86
2018-11-05T05:13:05.636Z,92.64
2018-11-05T05:15:31.967Z,100.00
2018-11-05T05:17:58.281Z,100.00
2018-11-05T05:20:24.591Z,100.00
2018-11-05T05:22:51.108Z,100.00
2018-11-05T05:25:17.214Z,100.00
2018-11-05T05:27:43.517Z,100.00
2018-11-05T05:30:09.851Z,100.00
2018-11-05T05:32:36.169Z,100.00
2018-11-05T05:35:02.492Z,98.67
2018-11-05T05:37:28.816Z,97.83
2018-11-05T05:39:55.132Z,96.86
2018-11-05T05:42:21.453Z,96.89
2018-11-05T05:44:47.779Z,97.27
2018-11-05T05:47:14.094Z,97.02
2018-11-05T05:49:40.419Z,96.95
2018-11-05T05:52:06.746Z,97.95
2018-11-05T05:54:33.076Z,98.16
2018-11-05T05:56:59.373Z,97.82
2018-11-05T05:59:25.699Z,97.74
2018-11-05T06:01:52.004Z,97.18
2018-11-05T06:04:18.325Z,96.43
2018-11-05T06:06:44.653Z,96.12
2018-11-05T06:09:10.976Z,95.83
2018-11-05T06:11:37.294Z,95.52
2018-11-05T06:14:03.637Z,94.82
2018-11-05T06:16:29.948Z,94.29
2018-11-05T06:18:56.267Z,94.52
2018-11-05T06:21:22.594Z,94.95
2018-11-05T06:23:48.902Z,94.04
2018-11-05T06:26:15.228Z,93.74
2018-11-05T06:28:41.663Z,92.80
2018-11-05T06:31:07.896Z,93.08
2018-11-05T06:33:34.222Z,93.60
2018-11-05T06:36:00.533Z,93.73
2018-11-05T06:38:26.859Z,92.41
2018-11-05T06:40:53.180Z,91.31
2018-11-05T06:43:19.536Z,91.17
2018-11-05T06:45:45.857Z,91.38
2018-11-05T06:48:12.160Z,91.10
2018-11-05T06:50:38.490Z,90.96
2018-11-05T06:53:04.834Z,90.68
2018-11-05T06:55:31.157Z,89.56
2018-11-05T06:57:57.477Z,89.57
2018-11-05T07:00:23.810Z,89.12
2018-11-05T07:02:50.104Z,88.36
2018-11-05T07:05:16.435Z,88.37
2018-11-05T07:07:42.767Z,87.72
2018-11-05T07:10:09.090Z,86.61
2018-11-05T07:12:35.422Z,87.20
2018-11-05T07:15:01.727Z,86.71
2018-11-05T07:17:28.036Z,85.15
2018-11-05T07:19:54.363Z,84.34
2018-11-05T07:22:20.668Z,84.98
2018-11-05T07:24:46.978Z,84.76
2018-11-05T07:27:13.334Z,84.22
2018-11-05T07:29:39.653Z,84.65
2018-11-05T07:32:05.957Z,85.08
2018-11-05T07:34:32.303Z,84.29
2018-11-05T07:36:58.565Z,83.28
2018-11-05T07:39:24.870Z,83.42
2018-11-05T07:41:51.195Z,82.70
2018-11-05T07:44:17.526Z,80.26
2018-11-05T07:46:43.854Z,79.73
2018-11-05T07:49:10.178Z,80.97
2018-11-05T07:51:36.481Z,80.04
2018-11-05T07:54:02.826Z,79.12
2018-11-05T07:56:29.150Z,77.49
2018-11-05T07:58:55.475Z,75.44
2018-11-05T08:01:21.793Z,73.58
2018-11-05T08:03:48.118Z,72.36
2018-11-05T08:06:14.430Z,73.34
2018-11-05T08:08:40.762Z,72.24
2018-11-05T08:11:07.064Z,70.37
2018-11-05T08:13:33.385Z,70.00
2018-11-05T08:15:59.750Z,71.28
2018-11-05T08:18:26.073Z,69.81
2018-11-05T08:20:52.402Z,69.35
2018-11-05T08:23:18.740Z,68.72
2018-11-05T08:25:45.050Z,67.33
2018-11-05T08:28:11.379Z,66.41
2018-11-05T08:30:37.691Z,67.22
2018-11-05T08:33:03.988Z,65.77
2018-11-05T08:35:30.298Z,66.02
2018-11-05T08:37:56.610Z,66.23
2018-11-05T08:40:22.942Z,67.55
2018-11-05T08:42:49.241Z,67.19
2018-11-05T08:45:15.565Z,67.85
2018-11-05T08:47:41.873Z,65.40
2018-11-05T08:50:08.249Z,64.63
2018-11-05T08:52:34.488Z,65.56
2018-11-05T08:55:00.814Z,65.07
2018-11-05T08:57:27.148Z,64.60
2018-11-05T08:59:53.425Z,64.23
2018-11-05T09:02:19.728Z,61.90
2018-11-05T09:04:46.091Z,62.98
2018-11-05T09:07:12.360Z,63.04
2018-11-05T09:09:38.662Z,62.12
2018-11-05T09:12:05.059Z,61.63
2018-11-05T09:14:31.323Z,60.13
2018-11-05T09:16:57.654Z,60.18
2018-11-05T09:19:23.960Z,59.64
2018-11-05T09:21:50.291Z,59.31
2018-11-05T09:24:16.627Z,58.28
2018-11-05T09:26:42.958Z,59.18
2018-11-05T09:29:09.283Z,57.67
2018-11-05T09:31:35.590Z,57.11
2018-11-05T09:34:01.905Z,56.66
2018-11-05T09:36:28.229Z,56.88
2018-11-05T09:38:54.535Z,56.56
2018-11-05T09:41:20.840Z,55.85
2018-11-05T09:43:47.141Z,55.75
2018-11-05T09:46:13.443Z,56.75
2018-11-05T09:48:39.778Z,59.24
2018-11-05T09:51:06.085Z,57.02
2018-11-05T09:53:32.393Z,55.97
2018-11-05T09:55:58.702Z,55.27
2018-11-05T09:58:25.026Z,56.76
2018-11-05T10:00:51.363Z,55.75
2018-11-05T10:03:17.882Z,55.07
2018-11-05T10:05:44.079Z,54.77
2018-11-05T10:08:10.337Z,54.77
2018-11-05T10:10:36.674Z,55.23
2018-11-05T10:13:02.987Z,54.36
2018-11-05T10:15:29.316Z,54.31
2018-11-05T10:17:55.616Z,54.18
2018-11-05T10:20:21.941Z,55.75
2018-11-05T10:22:48.266Z,54.36
2018-11-05T10:25:14.765Z,53.22
2018-11-05T10:27:40.937Z,54.21
2018-11-05T10:30:07.243Z,54.14
2018-11-05T10:32:33.570Z,52.88
2018-11-05T10:34:59.901Z,52.11
2018-11-05T10:37:26.200Z,51.47
2018-11-05T10:39:52.512Z,52.62
2018-11-05T10:42:18.814Z,51.65
2018-11-05T10:44:45.122Z,51.46
2018-11-05T10:47:11.474Z,51.28
2018-11-05T10:49:37.807Z,51.23
2018-11-05T10:52:04.300Z,51.39
2018-11-05T10:54:30.450Z,50.89
2018-11-05T10:56:56.812Z,50.64
2018-11-05T10:59:23.099Z,50.12
2018-11-05T11:01:49.415Z,50.90
2018-11-05T11:04:15.763Z,51.64
2018-11-05T11:06:42.060Z,50.15
2018-11-05T11:09:08.406Z,48.72
2018-11-05T11:11:34.667Z,48.12
2018-11-05T11:14:00.990Z,48.45
2018-11-05T11:16:27.329Z,48.61
2018-11-05T11:18:53.635Z,49.13
2018-11-05T11:21:19.962Z,48.80
2018-11-05T11:23:46.290Z,47.98
2018-11-05T11:26:12.595Z,48.88
2018-11-05T11:28:38.943Z,47.97
2018-11-05T11:31:05.263Z,47.63
2018-11-05T11:33:31.561Z,46.58
2018-11-05T11:35:57.895Z,46.24
2018-11-05T11:38:24.258Z,46.39
2018-11-05T11:40:50.627Z,45.89
2018-11-05T11:43:16.947Z,46.52
2018-11-05T11:45:43.275Z,48.11
2018-11-05T11:48:09.584Z,48.16
2018-11-05T11:50:35.888Z,47.09
2018-11-05T11:53:03.215Z,47.32
2018-11-05T11:55:29.416Z,46.98
2018-11-05T11:57:55.909Z,44.74
2018-11-05T12:00:22.192Z,45.08
2018-11-05T12:02:48.514Z,45.50
2018-11-05T12:05:14.904Z,46.07
2018-11-05T12:07:41.175Z,46.78
2018-11-05T12:10:07.503Z,46.36
2018-11-05T12:12:33.808Z,46.12
2018-11-05T12:15:00.309Z,46.23
2018-11-05T12:17:26.478Z,46.69
2018-11-05T12:19:52.803Z,46.34
2018-11-05T12:22:19.135Z,47.30
2018-11-05T12:24:45.489Z,46.72
2018-11-05T12:27:11.768Z,46.63
2018-11-05T12:29:38.081Z,46.63
2018-11-05T12:32:04.451Z,45.82
2018-11-05T12:34:30.704Z,45.95
2018-11-05T12:36:57.040Z,45.57
2018-11-05T12:39:23.348Z,44.29
2018-11-05T12:41:49.657Z,44.13
2018-11-05T12:44:15.996Z,43.74
2018-11-05T12:46:42.364Z,44.97
2018-11-05T12:49:08.730Z,44.99
2018-11-05T12:51:37.529Z,44.24
2018-11-05T12:54:03.836Z,44.03
2018-11-05T12:56:30.211Z,44.05
2018-11-05T12:58:56.535Z,42.81
2018-11-05T13:01:22.858Z,40.64
2018-11-05T13:03:49.167Z,41.99
2018-11-05T13:06:15.538Z,41.95
2018-11-05T13:08:41.859Z,42.69
2018-11-05T13:11:08.165Z,42.38
2018-11-05T13:13:34.490Z,41.91
2018-11-05T13:16:00.822Z,42.22
2018-11-05T13:18:27.126Z,41.65
2018-11-05T13:20:53.440Z,41.67
2018-11-05T13:23:19.746Z,42.12
2018-11-05T13:25:46.070Z,43.14
2018-11-05T13:28:12.468Z,42.90
2018-11-05T13:30:38.836Z,42.08
2018-11-05T13:33:05.127Z,41.31
2018-11-05T13:35:31.454Z,41.52
2018-11-05T13:37:58.219Z,42.24
2018-11-05T13:40:24.064Z,41.37
2018-11-05T13:42:50.404Z,41.40
2018-11-05T13:45:16.910Z,41.86
2018-11-05T13:47:43.732Z,39.67
2018-11-05T13:50:09.777Z,40.44
2018-11-05T13:52:35.803Z,40.86
2018-11-05T13:55:02.367Z,40.93
2018-11-05T13:57:28.340Z,41.82
2018-11-05T13:59:54.626Z,40.23
2018-11-05T14:02:21.016Z,40.96
2018-11-05T14:04:47.290Z,40.77
2018-11-05T14:07:13.613Z,41.50
2018-11-05T14:09:39.925Z,40.78
2018-11-05T14:12:06.229Z,41.26
2018-11-05T14:14:32.567Z,41.70
2018-11-05T14:16:58.917Z,41.25
2018-11-05T14:19:25.246Z,41.00
2018-11-05T14:21:51.548Z,41.25
2018-11-05T14:24:17.844Z,41.21
2018-11-05T14:26:44.207Z,41.21
2018-11-05T14:29:10.744Z,41.21
2018-11-05T14:31:36.835Z,41.42
2018-11-05T14:34:03.167Z,42.07
2018-11-05T14:36:29.676Z,42.00
2018-11-05T14:38:55.957Z,41.87
2018-11-05T14:41:22.307Z,41.66
2018-11-05T14:43:48.623Z,41.99
2018-11-05T14:46:14.952Z,41.93
2018-11-05T14:48:41.360Z,42.22
2018-11-05T14:51:07.651Z,41.92
2018-11-05T14:53:33.948Z,41.80
2018-11-05T14:56:00.313Z,41.83
2018-11-05T14:58:26.642Z,41.93
2018-11-05T15:00:52.970Z,41.88
2018-11-05T15:03:19.273Z,42.13
2018-11-05T15:05:45.613Z,42.50
2018-11-05T15:08:11.922Z,42.31
2018-11-05T15:10:38.239Z,42.94
2018-11-05T15:13:04.594Z,42.59
2018-11-05T15:15:30.885Z,42.50
2018-11-05T15:17:57.191Z,42.41
2018-11-05T15:20:23.566Z,42.63
2018-11-05T15:22:49.818Z,42.20
2018-11-05T15:25:16.124Z,42.48
2018-11-05T15:27:42.427Z,42.76
2018-11-05T15:30:08.745Z,42.40
2018-11-05T15:32:35.121Z,42.66
2018-11-05T15:35:01.443Z,42.68
2018-11-05T15:37:27.774Z,42.72
2018-11-05T15:39:54.102Z,43.15
2018-11-05T15:42:20.430Z,43.03
2018-11-05T15:44:46.738Z,42.51
2018-11-05T15:47:13.061Z,42.44
2018-11-05T15:49:39.376Z,42.17
2018-11-05T15:52:06.138Z,41.55
2018-11-05T15:54:32.125Z,41.98
2018-11-05T15:56:58.309Z,42.31
2018-11-05T15:59:24.618Z,42.75
2018-11-05T16:01:50.920Z,42.61
2018-11-05T16:04:17.278Z,41.65
2018-11-05T16:06:43.532Z,41.88
2018-11-05T16:09:09.868Z,42.25
2018-11-05T16:11:36.196Z,41.00
2018-11-05T16:14:02.527Z,41.84
2018-11-05T16:16:28.853Z,42.25
2018-11-05T16:18:55.164Z,42.44
2018-11-05T16:21:21.494Z,42.31
2018-11-05T16:23:47.886Z,42.66
2018-11-05T16:26:14.143Z,42.98
2018-11-05T16:28:40.474Z,43.04
2018-11-05T16:31:06.778Z,42.90
2018-11-05T16:33:33.086Z,42.97
2018-11-05T16:35:59.411Z,45.82
2018-11-05T16:38:25.771Z,49.03
2018-11-05T16:40:52.025Z,49.51
2018-11-05T16:43:18.347Z,48.90
2018-11-05T16:45:44.685Z,48.88
2018-11-05T16:48:10.994Z,49.25
2018-11-05T16:50:37.298Z,48.34
2018-11-05T16:53:03.610Z,46.98
2018-11-05T16:55:29.915Z,46.38
2018-11-05T16:57:56.363Z,45.96
2018-11-05T17:00:22.599Z,45.99
2018-11-05T17:02:49.129Z,45.79
2018-11-05T17:05:15.213Z,45.68
2018-11-05T17:07:41.519Z,45.95
2018-11-05T17:10:07.857Z,46.30
2018-11-05T17:12:34.184Z,46.11
2018-11-05T17:15:00.481Z,46.41
2018-11-05T17:17:26.789Z,46.33
2018-11-05T17:19:53.113Z,46.66
2018-11-05T17:22:19.422Z,46.93
2018-11-05T17:24:45.731Z,47.47
2018-11-05T17:27:12.146Z,47.62
2018-11-05T17:29:38.483Z,50.04
2018-11-05T17:32:04.783Z,49.53
2018-11-05T17:34:31.101Z,49.51
2018-11-05T17:36:57.424Z,49.86
2018-11-05T17:39:23.729Z,49.81
2018-11-05T17:41:50.029Z,50.00
2018-11-05T17:44:16.478Z,50.66
2018-11-05T17:46:42.749Z,50.80
2018-11-05T17:49:09.050Z,51.17
2018-11-05T17:51:35.383Z,51.48
2018-11-05T17:54:01.690Z,51.90
2018-11-05T17:56:28.018Z,52.34
2018-11-05T17:58:54.321Z,52.44
2018-11-05T18:01:20.655Z,53.81
2018-11-05T18:03:47.042Z,55.19
2018-11-05T18:06:13.289Z,55.40
2018-11-05T18:08:39.650Z,55.34
2018-11-05T18:11:05.912Z,55.41
2018-11-05T18:13:32.247Z,55.85
2018-11-05T18:15:58.576Z,56.35
2018-11-05T18:18:25.021Z,56.88
2018-11-05T18:20:51.331Z,57.42
2018-11-05T18:23:17.699Z,57.99
2018-11-05T18:25:44.030Z,58.53
2018-11-05T18:28:10.485Z,59.13
2018-11-05T18:30:36.773Z,59.71
2018-11-05T18:33:03.109Z,60.19
2018-11-05T18:35:29.424Z,60.76
2018-11-05T18:37:55.769Z,61.34
2018-11-05T18:40:22.098Z,61.92
2018-11-05T18:42:48.452Z,62.41
2018-11-05T18:45:14.798Z,62.95
2018-11-05T18:47:41.068Z,63.53
2018-11-05T18:50:07.457Z,64.00
2018-11-05T18:52:33.807Z,64.54
2018-11-05T18:55:00.248Z,65.18
2018-11-05T18:57:26.607Z,65.79
2018-11-05T18:59:52.910Z,66.34
2018-11-05T19:02:19.212Z,66.86
2018-11-05T19:04:45.538Z,67.41
2018-11-05T19:07:11.964Z,68.03
2018-11-05T19:09:38.337Z,68.53
2018-11-05T19:12:04.599Z,69.10
2018-11-05T19:14:30.930Z,69.66
2018-11-05T19:16:57.234Z,70.19
2018-11-05T19:19:23.564Z,70.70
2018-11-05T19:21:49.864Z,71.21
2018-11-05T19:24:16.477Z,71.76
2018-11-05T19:26:42.504Z,72.20
2018-11-05T19:29:08.859Z,72.74
2018-11-05T19:31:35.188Z,73.30
2018-11-05T19:34:01.599Z,76.03
2018-11-05T19:36:27.819Z,77.53
2018-11-05T19:38:54.122Z,77.52
2018-11-05T19:41:20.445Z,77.99
2018-11-05T19:43:46.744Z,78.62
2018-11-05T19:46:13.092Z,79.32
2018-11-05T19:48:39.419Z,79.85
2018-11-05T19:51:05.720Z,80.34
2018-11-05T19:53:32.040Z,80.85
2018-11-05T19:55:58.406Z,81.16
2018-11-05T19:58:24.686Z,81.57
2018-11-05T20:00:51.048Z,81.87
2018-11-05T20:03:17.295Z,82.21
2018-11-05T20:05:43.649Z,82.95
2018-11-05T20:08:09.943Z,83.69
2018-11-05T20:10:36.301Z,84.07
2018-11-05T20:13:02.612Z,84.53
2018-11-05T20:15:28.957Z,84.91
2018-11-05T20:17:55.261Z,85.40
2018-11-05T20:20:21.585Z,85.66
2018-11-05T20:22:47.898Z,85.94
2018-11-05T20:25:14.209Z,86.29
2018-11-05T20:27:40.537Z,86.46
2018-11-05T20:30:06.859Z,86.83
2018-11-05T20:32:33.629Z,87.06
2018-11-05T20:34:59.499Z,87.37
2018-11-05T20:37:25.822Z,87.63
2018-11-05T20:39:52.225Z,87.83
2018-11-05T20:42:18.461Z,88.07
2018-11-05T20:44:44.792Z,88.25
2018-11-05T20:47:11.121Z,88.49
2018-11-05T20:49:37.423Z,88.67
2018-11-05T20:52:03.749Z,88.91
2018-11-05T20:54:30.052Z,89.12
2018-11-05T20:56:56.388Z,89.24
2018-11-05T20:59:22.718Z,89.40
2018-11-05T21:01:49.015Z,89.49
2018-11-05T21:04:15.316Z,89.68
2018-11-05T21:06:41.616Z,89.86
2018-11-05T21:09:07.921Z,89.96
2018-11-05T21:11:34.220Z,90.15
2018-11-05T21:14:00.546Z,90.19
2018-11-05T21:16:26.868Z,90.34
2018-11-05T21:18:53.176Z,90.39
2018-11-05T21:21:19.642Z,90.44
2018-11-05T21:23:45.787Z,90.49
2018-11-05T21:26:12.122Z,90.50
2018-11-05T21:28:38.423Z,90.58
2018-11-05T21:31:04.750Z,90.69
2018-11-05T21:33:31.163Z,90.86
2018-11-05T21:35:57.493Z,90.94
2018-11-05T21:38:23.890Z,91.00
2018-11-05T21:40:50.246Z,91.15
2018-11-05T21:43:16.541Z,91.24
2018-11-05T21:45:42.977Z,91.37
2018-11-05T21:48:09.309Z,91.63
2018-11-05T21:50:35.670Z,91.80
2018-11-05T21:53:01.980Z,91.95
2018-11-05T21:55:28.305Z,92.01
2018-11-05T21:57:54.744Z,92.20
2018-11-05T22:00:21.017Z,92.43
2018-11-05T22:02:47.342Z,92.49
2018-11-05T22:05:13.645Z,92.60
2018-11-05T22:07:39.972Z,92.72
2018-11-05T22:10:06.277Z,92.75
2018-11-05T22:12:32.580Z,92.97
2018-11-05T22:14:58.906Z,93.00
2018-11-05T22:17:25.204Z,93.03
2018-11-05T22:19:51.523Z,93.17
2018-11-05T22:22:17.880Z,93.32
2018-11-05T22:24:44.155Z,93.39
2018-11-05T22:27:10.464Z,93.55
2018-11-05T22:29:36.760Z,93.75
2018-11-05T22:32:03.076Z,93.84
2018-11-05T22:34:29.383Z,93.83
2018-11-05T22:36:55.684Z,93.91
2018-11-05T22:39:22.033Z,93.96
2018-11-05T22:41:48.353Z,94.06
2018-11-05T22:44:14.654Z,94.20
2018-11-05T22:46:40.957Z,94.36
2018-11-05T22:49:07.264Z,94.44
2018-11-05T22:51:33.567Z,94.51
2018-11-05T22:53:59.892Z,94.71
2018-11-05T22:56:26.212Z,94.79
2018-11-05T22:58:52.572Z,94.77
2018-11-05T23:01:18.871Z,94.82
2018-11-05T23:03:45.176Z,94.97
2018-11-05T23:06:11.493Z,95.05
2018-11-05T23:08:37.780Z,95.20
2018-11-05T23:11:04.110Z,95.31
2018-11-05T23:13:30.442Z,95.38
2018-11-05T23:15:56.745Z,95.57
2018-11-05T23:18:23.069Z,95.66
2018-11-05T23:20:49.414Z,95.71
2018-11-05T23:23:15.724Z,95.74
2018-11-05T23:25:42.045Z,95.82
2018-11-05T23:28:08.347Z,95.85
2018-11-05T23:30:34.647Z,95.84
2018-11-05T23:33:00.947Z,96.02
2018-11-05T23:35:27.268Z,96.08
2018-11-05T23:37:53.593Z,96.05
2018-11-05T23:40:19.899Z,96.05
2018-11-05T23:42:46.224Z,96.09
2018-11-05T23:45:12.526Z,96.16
2018-11-05T23:47:38.900Z,96.20
2018-11-05T23:50:05.228Z,96.21
2018-11-05T23:52:31.523Z,96.45
2018-11-05T23:54:57.849Z,96.37
2018-11-05T23:57:24.169Z,96.43
2018-11-05T23:59:50.473Z,96.27
